NW933D KWVI-KWVI
Flight info
| Callsign | NW933D |
|---|---|
| Flight time | 0h 30m |
| Altitude | 1500 |
| Route | CIRCUITS |
| Aircraft | C172/L-V/N |
Departure
| Time | 2026-05-09 08:03 |
|---|---|
| Airport | Watsonville Municipal Airport (KWVI) |
Arrival
| Time | 2026-05-09 08:34 |
|---|---|
| Airport | Watsonville Municipal Airport (KWVI) |
| Time | Latitude | Longitude | Altitude | Speed | Heading |
|---|---|---|---|---|---|
| 2026-05-09 07:52 | 36.93498 | -121.78691 | 145 ft | 0 kts | 90° |
| 2026-05-09 07:57 | 36.93498 | -121.78687 | 145 ft | 2 kts | 81° |
| 2026-05-09 07:58 | 36.93505 | -121.78670 | 145 ft | 3 kts | 41° |
| 2026-05-09 07:58 | 36.93579 | -121.78637 | 146 ft | 15 kts | 12° |
| 2026-05-09 07:58 | 36.93660 | -121.78622 | 147 ft | 3 kts | 57° |
| 2026-05-09 07:58 | 36.93649 | -121.78538 | 146 ft | 17 kts | 102° |
| 2026-05-09 07:59 | 36.93639 | -121.78346 | 141 ft | 20 kts | 110° |
| 2026-05-09 07:59 | 36.93603 | -121.78169 | 138 ft | 21 kts | 99° |
| 2026-05-09 07:59 | 36.93637 | -121.78089 | 135 ft | 13 kts | 353° |
| 2026-05-09 07:59 | 36.93658 | -121.78143 | 138 ft | 2 kts | 283° |
| 2026-05-09 08:00 | 36.93660 | -121.78150 | 138 ft | 0 kts | 282° |
| 2026-05-09 08:00 | 36.93660 | -121.78152 | 138 ft | 0 kts | 282° |
| 2026-05-09 08:00 | 36.93660 | -121.78154 | 138 ft | 0 kts | 282° |
| 2026-05-09 08:00 | 36.93661 | -121.78155 | 138 ft | 0 kts | 282° |
| 2026-05-09 08:01 | 36.93661 | -121.78158 | 138 ft | 0 kts | 282° |
| 2026-05-09 08:01 | 36.93662 | -121.78159 | 138 ft | 0 kts | 282° |
| 2026-05-09 08:01 | 36.93662 | -121.78162 | 138 ft | 0 kts | 282° |
| 2026-05-09 08:01 | 36.93662 | -121.78164 | 138 ft | 0 kts | 282° |
| 2026-05-09 08:02 | 36.93663 | -121.78166 | 138 ft | 0 kts | 282° |
| 2026-05-09 08:02 | 36.93663 | -121.78169 | 138 ft | 0 kts | 282° |
| 2026-05-09 08:02 | 36.93687 | -121.78348 | 142 ft | 47 kts | 279° |
| 2026-05-09 08:02 | 36.93751 | -121.78852 | 263 ft | 58 kts | 278° |
| 2026-05-09 08:03 | 36.93789 | -121.79429 | 334 ft | 75 kts | 280° |
| 2026-05-09 08:03 | 36.93852 | -121.80068 | 552 ft | 73 kts | 274° |
| 2026-05-09 08:03 | 36.93952 | -121.80703 | 734 ft | 76 kts | 301° |
| 2026-05-09 08:03 | 36.94432 | -121.80856 | 888 ft | 86 kts | 18° |
| 2026-05-09 08:04 | 36.94863 | -121.80595 | 1206 ft | 67 kts | 16° |
| 2026-05-09 08:04 | 36.95394 | -121.80427 | 1279 ft | 80 kts | 2° |
| 2026-05-09 08:04 | 36.95954 | -121.80267 | 1452 ft | 84 kts | 10° |
| 2026-05-09 08:04 | 36.96522 | -121.80086 | 1611 ft | 86 kts | 8° |
| 2026-05-09 08:05 | 36.96946 | -121.79553 | 1625 ft | 103 kts | 78° |
| 2026-05-09 08:05 | 36.96876 | -121.78638 | 1630 ft | 111 kts | 100° |
| 2026-05-09 08:05 | 36.96703 | -121.77712 | 1692 ft | 107 kts | 99° |
| 2026-05-09 08:05 | 36.96568 | -121.76784 | 1690 ft | 109 kts | 99° |
| 2026-05-09 08:06 | 36.96424 | -121.75861 | 1697 ft | 107 kts | 97° |
| 2026-05-09 08:06 | 36.96347 | -121.74930 | 1696 ft | 107 kts | 91° |
| 2026-05-09 08:06 | 36.96278 | -121.73998 | 1623 ft | 114 kts | 100° |
| 2026-05-09 08:06 | 36.95993 | -121.73041 | 1555 ft | 112 kts | 117° |
| 2026-05-09 08:07 | 36.95596 | -121.72282 | 1590 ft | 99 kts | 140° |
| 2026-05-09 08:07 | 36.94944 | -121.72132 | 1549 ft | 99 kts | 189° |
| 2026-05-09 08:07 | 36.94249 | -121.72245 | 1550 ft | 100 kts | 189° |
| 2026-05-09 08:07 | 36.93573 | -121.72373 | 1602 ft | 98 kts | 188° |
| 2026-05-09 08:08 | 36.92878 | -121.72447 | 1566 ft | 101 kts | 185° |
| 2026-05-09 08:08 | 36.92189 | -121.72490 | 1607 ft | 100 kts | 184° |
| 2026-05-09 08:08 | 36.91478 | -121.72497 | 1620 ft | 100 kts | 180° |
| 2026-05-09 08:08 | 36.90789 | -121.72460 | 1642 ft | 101 kts | 179° |
| 2026-05-09 08:09 | 36.90089 | -121.72390 | 1665 ft | 101 kts | 175° |
| 2026-05-09 08:09 | 36.89387 | -121.72362 | 1677 ft | 100 kts | 193° |
| 2026-05-09 08:09 | 36.88776 | -121.72750 | 1680 ft | 98 kts | 217° |
| 2026-05-09 08:09 | 36.88191 | -121.73127 | 1730 ft | 96 kts | 209° |
| 2026-05-09 08:10 | 36.87588 | -121.73517 | 1746 ft | 95 kts | 214° |
| 2026-05-09 08:10 | 36.86999 | -121.73944 | 1698 ft | 98 kts | 217° |
| 2026-05-09 08:10 | 36.86451 | -121.74407 | 1623 ft | 95 kts | 221° |
| 2026-05-09 08:10 | 36.85908 | -121.74887 | 1594 ft | 92 kts | 220° |
| 2026-05-09 08:11 | 36.85358 | -121.75337 | 1512 ft | 97 kts | 217° |
| 2026-05-09 08:11 | 36.84824 | -121.75824 | 1587 ft | 92 kts | 224° |
| 2026-05-09 08:11 | 36.84319 | -121.76308 | 1609 ft | 91 kts | 223° |
| 2026-05-09 08:11 | 36.84078 | -121.76951 | 1589 ft | 82 kts | 280° |
| 2026-05-09 08:12 | 36.84911 | -121.78001 | 1453 ft | 88 kts | 311° |
| 2026-05-09 08:12 | 36.85339 | -121.78532 | 1304 ft | 84 kts | 310° |
| 2026-05-09 08:12 | 36.85717 | -121.79009 | 1069 ft | 68 kts | 309° |
| 2026-05-09 08:13 | 36.86089 | -121.79430 | 915 ft | 79 kts | 314° |
| 2026-05-09 08:13 | 36.86511 | -121.79855 | 930 ft | 78 kts | 315° |
| 2026-05-09 08:13 | 36.86900 | -121.80315 | 979 ft | 74 kts | 307° |
| 2026-05-09 08:13 | 36.87206 | -121.80859 | 955 ft | 76 kts | 296° |
| 2026-05-09 08:14 | 36.87455 | -121.81427 | 981 ft | 73 kts | 298° |
| 2026-05-09 08:14 | 36.87901 | -121.81632 | 971 ft | 84 kts | 10° |
| 2026-05-09 08:14 | 36.88462 | -121.81565 | 980 ft | 79 kts | 347° |
| 2026-05-09 08:14 | 36.89024 | -121.81606 | 945 ft | 85 kts | 348° |
| 2026-05-09 08:15 | 36.89630 | -121.81557 | 830 ft | 92 kts | 3° |
| 2026-05-09 08:15 | 36.90234 | -121.81395 | 727 ft | 84 kts | 9° |
| 2026-05-09 08:15 | 36.90767 | -121.81144 | 594 ft | 78 kts | 19° |
| 2026-05-09 08:15 | 36.91235 | -121.80817 | 488 ft | 77 kts | 24° |
| 2026-05-09 08:16 | 36.91691 | -121.80479 | 376 ft | 77 kts | 22° |
| 2026-05-09 08:16 | 36.92147 | -121.80160 | 303 ft | 74 kts | 25° |
| 2026-05-09 08:16 | 36.92583 | -121.79827 | 221 ft | 72 kts | 26° |
| 2026-05-09 08:16 | 36.92999 | -121.79493 | 158 ft | 68 kts | 27° |
| 2026-05-09 08:17 | 36.93402 | -121.79184 | 148 ft | 77 kts | 32° |
| 2026-05-09 08:17 | 36.93868 | -121.78757 | 269 ft | 91 kts | 37° |
| 2026-05-09 08:17 | 36.94318 | -121.78218 | 521 ft | 85 kts | 39° |
| 2026-05-09 08:17 | 36.94725 | -121.77730 | 766 ft | 79 kts | 38° |
| 2026-05-09 08:18 | 36.95097 | -121.77221 | 958 ft | 79 kts | 41° |
| 2026-05-09 08:18 | 36.95261 | -121.76557 | 1084 ft | 89 kts | 106° |
| 2026-05-09 08:18 | 36.94894 | -121.75935 | 1186 ft | 93 kts | 127° |
| 2026-05-09 08:18 | 36.94481 | -121.75266 | 1198 ft | 99 kts | 126° |
| 2026-05-09 08:19 | 36.94028 | -121.74615 | 1215 ft | 101 kts | 147° |
| 2026-05-09 08:19 | 36.93342 | -121.74525 | 1167 ft | 105 kts | 200° |
| 2026-05-09 08:19 | 36.92679 | -121.74949 | 1130 ft | 107 kts | 214° |
| 2026-05-09 08:19 | 36.92059 | -121.75462 | 1103 ft | 102 kts | 218° |
| 2026-05-09 08:20 | 36.91486 | -121.75974 | 1055 ft | 100 kts | 220° |
| 2026-05-09 08:20 | 36.90921 | -121.76475 | 1033 ft | 98 kts | 219° |
| 2026-05-09 08:20 | 36.90377 | -121.76954 | 1076 ft | 94 kts | 220° |
| 2026-05-09 08:20 | 36.89836 | -121.77451 | 1068 ft | 96 kts | 223° |
| 2026-05-09 08:21 | 36.89322 | -121.77958 | 1132 ft | 92 kts | 223° |
| 2026-05-09 08:21 | 36.88820 | -121.78447 | 1189 ft | 89 kts | 223° |
| 2026-05-09 08:21 | 36.88307 | -121.78896 | 1180 ft | 91 kts | 219° |
| 2026-05-09 08:21 | 36.87763 | -121.79298 | 1147 ft | 94 kts | 219° |
| 2026-05-09 08:22 | 36.87224 | -121.79740 | 1160 ft | 91 kts | 217° |
| 2026-05-09 08:22 | 36.86679 | -121.80160 | 1148 ft | 91 kts | 219° |
| 2026-05-09 08:22 | 36.86153 | -121.80630 | 1091 ft | 94 kts | 223° |
| 2026-05-09 08:22 | 36.85858 | -121.81279 | 1060 ft | 90 kts | 277° |
| 2026-05-09 08:23 | 36.86268 | -121.81886 | 1037 ft | 92 kts | 317° |
| 2026-05-09 08:23 | 36.86752 | -121.82410 | 976 ft | 96 kts | 313° |
| 2026-05-09 08:23 | 36.87233 | -121.82989 | 956 ft | 95 kts | 310° |
| 2026-05-09 08:23 | 36.87688 | -121.83560 | 937 ft | 90 kts | 308° |
| 2026-05-09 08:24 | 36.88241 | -121.83854 | 972 ft | 97 kts | 9° |
| 2026-05-09 08:24 | 36.88683 | -121.83160 | 883 ft | 114 kts | 65° |
| 2026-05-09 08:24 | 36.89114 | -121.82454 | 908 ft | 87 kts | 25° |
| 2026-05-09 08:24 | 36.89602 | -121.82127 | 756 ft | 74 kts | 24° |
| 2026-05-09 08:25 | 36.90041 | -121.81790 | 597 ft | 74 kts | 23° |
| 2026-05-09 08:25 | 36.90473 | -121.81448 | 469 ft | 72 kts | 24° |
| 2026-05-09 08:25 | 36.90888 | -121.81135 | 348 ft | 68 kts | 20° |
| 2026-05-09 08:25 | 36.91271 | -121.80826 | 293 ft | 65 kts | 22° |
| 2026-05-09 08:26 | 36.91663 | -121.80536 | 275 ft | 65 kts | 24° |
| 2026-05-09 08:26 | 36.92057 | -121.80237 | 289 ft | 66 kts | 23° |
| 2026-05-09 08:26 | 36.92440 | -121.79938 | 250 ft | 64 kts | 26° |
| 2026-05-09 08:26 | 36.92812 | -121.79642 | 192 ft | 60 kts | 24° |
| 2026-05-09 08:27 | 36.93153 | -121.79380 | 144 ft | 50 kts | 23° |
| 2026-05-09 08:27 | 36.93467 | -121.79137 | 162 ft | 65 kts | 29° |
| 2026-05-09 08:27 | 36.93865 | -121.78726 | 285 ft | 79 kts | 39° |
| 2026-05-09 08:27 | 36.94200 | -121.78180 | 487 ft | 81 kts | 64° |
| 2026-05-09 08:28 | 36.94034 | -121.77514 | 663 ft | 87 kts | 134° |
| 2026-05-09 08:28 | 36.93683 | -121.76931 | 867 ft | 87 kts | 127° |
| 2026-05-09 08:28 | 36.93281 | -121.76367 | 1054 ft | 88 kts | 132° |
| 2026-05-09 08:28 | 36.92838 | -121.75787 | 1119 ft | 93 kts | 135° |
| 2026-05-09 08:29 | 36.92269 | -121.75471 | 1125 ft | 93 kts | 192° |
| 2026-05-09 08:29 | 36.91713 | -121.75809 | 1170 ft | 88 kts | 212° |
| 2026-05-09 08:29 | 36.91213 | -121.76249 | 1166 ft | 90 kts | 222° |
| 2026-05-09 08:29 | 36.90700 | -121.76704 | 1205 ft | 88 kts | 219° |
| 2026-05-09 08:30 | 36.90191 | -121.77155 | 1180 ft | 90 kts | 220° |
| 2026-05-09 08:30 | 36.89684 | -121.77623 | 1145 ft | 90 kts | 224° |
| 2026-05-09 08:30 | 36.89209 | -121.78108 | 1132 ft | 89 kts | 225° |
| 2026-05-09 08:30 | 36.88727 | -121.78593 | 1141 ft | 86 kts | 224° |
| 2026-05-09 08:31 | 36.88241 | -121.79030 | 1131 ft | 88 kts | 217° |
| 2026-05-09 08:31 | 36.87820 | -121.79560 | 1115 ft | 83 kts | 256° |
| 2026-05-09 08:31 | 36.87954 | -121.80227 | 1097 ft | 84 kts | 307° |
| 2026-05-09 08:31 | 36.88398 | -121.80716 | 1074 ft | 83 kts | 316° |
| 2026-05-09 08:32 | 36.88821 | -121.81113 | 1014 ft | 74 kts | 319° |
| 2026-05-09 08:32 | 36.89228 | -121.81502 | 930 ft | 73 kts | 322° |
| 2026-05-09 08:32 | 36.90335 | -121.81310 | 817 ft | 87 kts | 11° |
| 2026-05-09 08:33 | 36.90902 | -121.81039 | 694 ft | 88 kts | 15° |
| 2026-05-09 08:33 | 36.91440 | -121.80686 | 587 ft | 84 kts | 23° |
| 2026-05-09 08:33 | 36.91896 | -121.80344 | 448 ft | 72 kts | 26° |
| 2026-05-09 08:33 | 36.92312 | -121.80023 | 332 ft | 69 kts | 26° |
| 2026-05-09 08:34 | 36.92714 | -121.79706 | 229 ft | 68 kts | 26° |
| 2026-05-09 08:34 | 36.93105 | -121.79404 | 143 ft | 63 kts | 25° |
| 2026-05-09 08:34 | 36.93433 | -121.79162 | 148 ft | 43 kts | 31° |
| 2026-05-09 08:34 | 36.93505 | -121.79104 | 148 ft | 0 kts | 32° |